Time;durP1;ratioP1;P1;durP2;ratioP2;P2;SDS_P1;SDS_P2;PMS_P1;PMS_P2;Temp;Humidity;BMP_temperature;BMP_pressure;BME280_temperature;BME280_humidity;BME280_pressure;Samples;Min_cycle;Max_cycle;Signal;HPM_P1;HPM_P2
2023/10/28 00:00:09;;;;;;;;;;;;;;;11.34;83.64;98255.97;1088471;47;947;-83
2023/10/28 00:01:12;;;;;;;;;;;;;;;11.30;84.00;98252.03;1088562;47;981;-83
2023/10/28 00:02:14;;;;;;;;;;;;;;;11.34;83.86;98245.25;1088562;47;1005;-81
2023/10/28 00:03:18;;;;;;;;;;;;;;;11.34;83.64;98250.59;1088621;54;1345;-82
2023/10/28 00:04:18;;;;;;;;;;;;;;;11.45;83.86;98256.44;1088693;54;1868;-83
2023/10/28 00:05:23;;;;;;;;;;;;;;;11.37;83.76;98247.56;1088744;54;987;-82
2023/10/28 00:06:23;;;;;;;;;;;;;;;11.33;83.99;98253.47;1088540;54;1348;-82
2023/10/28 00:07:27;;;;;;;;;;;;;;;11.30;84.39;98252.03;1088624;54;974;-82
2023/10/28 00:08:28;;;;;;;;;;;;;;;11.31;84.40;98251.00;1088574;46;1109;-82
2023/10/28 00:09:31;;;;;;;;;;;;;;;11.32;84.20;98254.50;1088677;54;1117;-82
2023/10/28 00:10:33;;;;;;;;;;;;;;;11.32;84.41;98254.50;1088631;54;1010;-81
2023/10/28 00:11:36;;;;;;;;;;;;;;;11.29;84.34;98246.88;1088739;46;947;-83
2023/10/28 00:12:41;;;;;;;;;;;;;;;11.26;83.90;98247.25;1088653;47;950;-82
2023/10/28 00:13:42;;;;;;;;;;;;;;;11.28;84.47;98251.38;1088729;47;933;-83
2023/10/28 00:14:45;;;;;;;;;;;;;;;11.31;84.43;98252.84;1088602;47;939;-83
2023/10/28 00:15:46;;;;;;;;;;;;;;;11.31;84.30;98253.69;1088660;46;1146;-82
2023/10/28 00:16:49;;;;;;;;;;;;;;;11.34;84.04;98255.97;1088621;47;1379;-83
2023/10/28 00:17:50;;;;;;;;;;;;;;;11.31;84.18;98256.38;1088615;54;1032;-83
2023/10/28 00:18:53;;;;;;;;;;;;;;;11.32;84.35;98255.34;1088693;54;955;-82
2023/10/28 00:19:55;;;;;;;;;;;;;;;11.37;83.89;98260.94;1088669;54;970;-83
2023/10/28 00:21:00;;;;;;;;;;;;;;;11.32;84.03;98257.19;1088682;46;914;-82
2023/10/28 00:22:00;;;;;;;;;;;;;;;11.36;84.14;98256.59;1088524;46;922;-81
2023/10/28 00:23:04;;;;;;;;;;;;;;;11.38;84.20;98261.78;1088559;54;1086;-81
2023/10/28 00:24:06;;;;;;;;;;;;;;;11.26;84.51;98266.78;1088327;54;1845;-82
2023/10/28 00:25:07;;;;;;;;;;;;;;;11.26;84.65;98268.66;1088284;46;1054;-81
2023/10/28 00:26:11;;;;;;;;;;;;;;;11.30;84.72;98260.06;1088438;47;936;-82
2023/10/28 00:27:15;;;;;;;;;;;;;;;11.30;84.51;98259.22;1088080;47;1224;-82
2023/10/28 00:28:18;;;;;;;;;;;;;;;11.32;84.70;98263.38;1088386;47;1034;-81
2023/10/28 00:29:20;;;;;;;;;;;;;;;11.23;85.08;98259.19;1088168;47;1054;-81
2023/10/28 00:30:25;;;;;;;;;;;;;;;11.26;84.82;98265.97;1087962;47;1174;-82
2023/10/28 00:31:39;;;;;;;;;;;;;;;11.24;85.00;98261.66;1088598;47;989;-83
2023/10/28 00:34:32;;;;;;;;;;;;;;;11.18;85.31;98265.09;1088632;47;839;-81
2023/10/28 00:36:04;;;;;;;;;;;;;;;11.22;85.16;98265.53;1088616;47;886;-82
2023/10/28 01:15:06;;;;;;;;;;;;;;;11.18;82.77;98277.63;1088101;54;1612;-81
2023/10/28 01:16:08;;;;;;;;;;;;;;;11.16;82.81;98282.34;1088477;47;939;-82
2023/10/28 01:17:13;;;;;;;;;;;;;;;11.13;82.87;98275.53;1088245;47;1145;-82
2023/10/28 01:18:14;;;;;;;;;;;;;;;11.18;83.01;98280.31;1088280;47;892;-82
2023/10/28 01:19:17;;;;;;;;;;;;;;;11.21;82.64;98283.44;1088335;54;906;-83
2023/10/28 01:20:17;;;;;;;;;;;;;;;11.23;82.72;98277.91;1088442;54;1002;-83
2023/10/28 01:21:24;;;;;;;;;;;;;;;11.22;82.60;98285.09;1088488;54;934;-83
2023/10/28 01:22:26;;;;;;;;;;;;;;;11.28;82.87;98282.69;1088663;47;987;-83
2023/10/28 01:23:30;;;;;;;;;;;;;;;11.25;82.75;98286.53;1088727;54;919;-84
2023/10/28 01:24:32;;;;;;;;;;;;;;;11.19;82.48;98285.47;1088509;54;1848;-83
2023/10/28 01:25:36;;;;;;;;;;;;;;;11.19;82.88;98282.78;1088394;47;949;-82
2023/10/28 01:26:37;;;;;;;;;;;;;;;11.21;82.79;98293.31;1088454;47;1399;-83
2023/10/28 01:27:43;;;;;;;;;;;;;;;11.19;82.91;98290.81;1088415;54;1010;-82
2023/10/28 01:28:43;;;;;;;;;;;;;;;11.21;83.00;98288.78;1088531;47;1147;-84
2023/10/28 01:29:48;;;;;;;;;;;;;;;11.26;82.72;98296.22;1088697;46;925;-83
2023/10/28 01:30:49;;;;;;;;;;;;;;;11.13;83.03;98280.06;1088615;47;971;-83
2023/10/28 01:31:52;;;;;;;;;;;;;;;11.18;82.63;98288.34;1088467;47;919;-83
2023/10/28 01:32:55;;;;;;;;;;;;;;;11.12;82.61;98291.78;1088440;47;1003;-84
2023/10/28 01:34:08;;;;;;;;;;;;;;;11.13;82.82;98296.13;1088482;47;1030;-84
2023/10/28 01:35:14;;;;;;;;;;;;;;;11.11;83.03;98303.50;1088400;46;927;-82
2023/10/28 01:36:18;;;;;;;;;;;;;;;11.08;83.00;98294.00;1088513;54;1016;-83
2023/10/28 01:37:21;;;;;;;;;;;;;;;11.08;82.59;98292.16;1088467;47;1487;-83
2023/10/28 01:38:26;;;;;;;;;;;;;;;11.13;82.49;98290.75;1088436;54;965;-82
2023/10/28 01:39:27;;;;;;;;;;;;;;;11.12;82.63;98303.28;1088391;54;959;-82
2023/10/28 01:40:27;;;;;;;;;;;;;;;11.15;82.32;98294.06;1088517;54;1032;-82
2023/10/28 01:41:30;;;;;;;;;;;;;;;11.17;82.09;98302.72;1088604;54;927;-82
2023/10/28 01:42:31;;;;;;;;;;;;;;;11.11;82.49;98300.81;1088668;54;1045;-80
2023/10/28 01:43:34;;;;;;;;;;;;;;;11.06;81.86;98299.53;1088555;46;1009;-82
2023/10/28 01:44:36;;;;;;;;;;;;;;;10.99;82.13;98295.97;1088555;47;1839;-82
2023/10/28 01:45:40;;;;;;;;;;;;;;;10.95;82.19;98300.06;1088681;54;964;-83
2023/10/28 01:46:41;;;;;;;;;;;;;;;11.00;81.91;98302.16;1088508;54;1249;-83
2023/10/28 01:47:45;;;;;;;;;;;;;;;10.99;81.79;98301.31;1088538;54;987;-82
2023/10/28 01:48:48;;;;;;;;;;;;;;;10.97;82.13;98302.53;1088565;54;1046;-83
2023/10/28 01:49:51;;;;;;;;;;;;;;;10.98;81.97;98312.22;1088404;47;1058;-82
2023/10/28 01:55:35;;;;;;;;;;;;;;;11.08;81.46;98321.56;1088226;54;1028;-82
2023/10/28 01:56:35;;;;;;;;;;;;;;;11.13;81.35;98309.50;1088443;47;1388;-81
2023/10/28 01:57:39;;;;;;;;;;;;;;;11.07;81.16;98319.91;1088491;47;938;-79
2023/10/28 01:58:39;;;;;;;;;;;;;;;11.12;81.00;98321.19;1088520;54;1008;-84
2023/10/28 01:59:44;;;;;;;;;;;;;;;11.18;81.34;98317.75;1088484;47;1009;-82
2023/10/28 02:00:48;;;;;;;;;;;;;;;11.21;81.10;98326.22;1088763;54;899;-84
2023/10/28 02:01:53;;;;;;;;;;;;;;;11.26;81.24;98322.97;1088822;47;831;-86
2023/10/28 02:02:55;;;;;;;;;;;;;;;11.24;81.09;98320.50;1088410;47;966;-81
2023/10/28 02:03:58;;;;;;;;;;;;;;;11.23;81.27;98321.50;1088236;47;1867;-81
2023/10/28 02:04:58;;;;;;;;;;;;;;;11.13;81.16;98323.66;1088349;54;929;-82
2023/10/28 02:06:12;;;;;;;;;;;;;;;11.16;81.36;98327.81;1088641;54;944;-84
2023/10/28 02:07:13;;;;;;;;;;;;;;;11.04;81.33;98322.97;1088300;47;1144;-80
2023/10/28 02:08:16;;;;;;;;;;;;;;;11.08;81.58;98328.78;1088284;47;921;-80
2023/10/28 02:09:20;;;;;;;;;;;;;;;11.12;81.59;98323.88;1088722;54;921;-85
2023/10/28 02:10:24;;;;;;;;;;;;;;;11.20;81.08;98321.88;1088779;54;899;-85
2023/10/28 02:11:33;;;;;;;;;;;;;;;11.05;81.22;98323.81;1088739;54;958;-84
2023/10/28 02:12:37;;;;;;;;;;;;;;;11.10;80.56;98334.75;1088572;47;969;-83
2023/10/28 02:13:38;;;;;;;;;;;;;;;10.99;81.21;98324.56;1088328;47;900;-82
2023/10/28 02:14:43;;;;;;;;;;;;;;;11.01;80.55;98326.03;1088378;47;977;-83
2023/10/28 02:15:47;;;;;;;;;;;;;;;11.05;80.61;98329.97;1088293;47;916;-81
2023/10/28 02:16:50;;;;;;;;;;;;;;;11.02;80.78;98322.34;1088297;47;1214;-83
2023/10/28 02:17:52;;;;;;;;;;;;;;;11.09;80.31;98327.75;1088338;47;884;-82
2023/10/28 02:18:55;;;;;;;;;;;;;;;11.15;80.01;98331.50;1088319;54;946;-82
2023/10/28 02:19:57;;;;;;;;;;;;;;;11.17;79.96;98334.81;1088200;47;1138;-82
2023/10/28 02:21:01;;;;;;;;;;;;;;;11.19;79.96;98332.78;1088289;47;937;-81
2023/10/28 02:22:02;;;;;;;;;;;;;;;11.08;79.64;98334.94;1088152;47;961;-80
2023/10/28 02:23:09;;;;;;;;;;;;;;;11.08;79.31;98332.28;1088105;47;960;-80
2023/10/28 02:24:10;;;;;;;;;;;;;;;11.02;79.19;98337.53;1088088;54;1860;-80
2023/10/28 02:25:14;;;;;;;;;;;;;;;11.07;79.23;98337.81;1088053;47;1004;-80
2023/10/28 02:26:14;;;;;;;;;;;;;;;11.05;78.77;98332.63;1088135;47;940;-80
2023/10/28 02:27:22;;;;;;;;;;;;;;;11.16;78.85;98338.50;1088054;47;1187;-79
2023/10/28 02:28:46;;;;;;;;;;;;;;;11.21;78.38;98341.44;1088105;54;980;-81
2023/10/28 02:29:50;;;;;;;;;;;;;;;11.10;78.36;98333.94;1088021;47;976;-81
2023/10/28 02:30:54;;;;;;;;;;;;;;;11.05;78.59;98329.97;1088091;47;966;-80
2023/10/28 02:32:14;;;;;;;;;;;;;;;11.12;77.96;98331.91;1088007;47;938;-80
2023/10/28 02:33:39;;;;;;;;;;;;;;;11.12;78.06;98343.41;1088076;47;938;-81
2023/10/28 02:34:44;;;;;;;;;;;;;;;11.18;78.05;98339.16;1088433;47;991;-84
2023/10/28 02:35:44;;;;;;;;;;;;;;;11.17;77.51;98334.81;1088632;54;1003;-85
2023/10/28 02:36:48;;;;;;;;;;;;;;;11.22;77.54;98340.44;1088474;54;1209;-84
2023/10/28 02:37:54;;;;;;;;;;;;;;;11.07;77.83;98343.97;1088564;47;986;-84
2023/10/28 02:38:58;;;;;;;;;;;;;;;11.13;77.88;98342.41;1088467;47;976;-85
2023/10/28 02:40:11;;;;;;;;;;;;;;;;;;;;;
2023/10/28 02:41:15;;;;;;;;;;;;;;;11.17;77.65;98340.16;1088502;54;1015;-83
2023/10/28 02:43:23;;;;;;;;;;;;;;;11.06;77.75;98345.00;1088934;54;951;-82
2023/10/28 02:44:30;;;;;;;;;;;;;;;11.11;77.45;98346.28;1088570;54;1858;-83
2023/10/28 02:45:35;;;;;;;;;;;;;;;11.13;77.12;98361.13;1088540;47;948;-83
2023/10/28 02:46:36;;;;;;;;;;;;;;;11.09;77.07;98349.16;1088383;47;1331;-81
2023/10/28 02:47:40;;;;;;;;;;;;;;;11.11;76.80;98352.44;1088398;54;953;-80
2023/10/28 02:48:54;;;;;;;;;;;;;;;11.18;76.94;98357.88;1088628;54;918;-83
2023/10/28 02:50:01;;;;;;;;;;;;;;;11.11;76.75;98356.97;1088576;47;944;-82
2023/10/28 02:51:02;;;;;;;;;;;;;;;11.12;77.10;98353.28;1088539;54;1006;-82
2023/10/28 02:52:06;;;;;;;;;;;;;;;11.13;76.79;98350.41;1088589;47;1031;-83
2023/10/28 02:53:10;;;;;;;;;;;;;;;11.11;76.75;98356.97;1088654;54;922;-82
2023/10/28 02:54:14;;;;;;;;;;;;;;;11.13;76.85;98358.44;1088473;47;965;-82
2023/10/28 02:55:17;;;;;;;;;;;;;;;11.18;76.62;98363.22;1088591;54;995;-84
2023/10/28 03:03:35;;;;;;;;;;;;;;;11.30;76.05;98334.09;1088510;54;712;-80
2023/10/28 03:04:36;;;;;;;;;;;;;;;11.21;76.40;98344.13;1088487;54;1852;-80
2023/10/28 03:05:39;;;;;;;;;;;;;;;11.23;76.16;98342.91;1088520;54;952;-79
2023/10/28 03:06:40;;;;;;;;;;;;;;;11.20;76.18;98342.47;1088117;47;1321;-79
2023/10/28 03:07:53;;;;;;;;;;;;;;;11.23;76.24;98344.78;1088288;47;965;-84
2023/10/28 03:08:56;;;;;;;;;;;;;;;11.26;76.24;98349.72;1088942;54;1011;-83
2023/10/28 03:20:32;;;;;;;;;;;;;;;11.37;76.02;98341.19;1088558;54;1204;-84
2023/10/28 03:21:34;;;;;;;;;;;;;;;11.39;76.14;98347.19;1088996;54;991;-83
2023/10/28 03:22:39;;;;;;;;;;;;;;;11.46;75.70;98341.06;1088863;46;1042;-82
2023/10/28 03:23:40;;;;;;;;;;;;;;;11.40;75.92;98339.97;1088570;47;970;-82
2023/10/28 03:24:44;;;;;;;;;;;;;;;11.47;76.05;98343.56;1088539;47;1846;-81
2023/10/28 03:25:46;;;;;;;;;;;;;;;11.51;75.94;98341.31;1088661;54;966;-83
2023/10/28 03:26:50;;;;;;;;;;;;;;;11.51;75.82;98336.78;1088652;47;1375;-82
2023/10/28 03:27:50;;;;;;;;;;;;;;;11.48;75.91;98342.50;1088497;47;985;-83
2023/10/28 03:28:55;;;;;;;;;;;;;;;11.47;76.21;98345.38;1088681;47;962;-84
2023/10/28 03:29:56;;;;;;;;;;;;;;;11.43;75.89;98341.47;1088802;47;1005;-84
2023/10/28 03:31:02;;;;;;;;;;;;;;;11.49;75.93;98344.16;1088860;46;1014;-85
2023/10/28 03:32:14;;;;;;;;;;;;;;;11.48;75.71;98342.50;1088754;47;1058;-84
2023/10/28 03:46:56;;;;;;;;;;;;;;;11.55;74.42;98347.94;1088661;54;1839;-84
2023/10/28 03:48:04;;;;;;;;;;;;;;;11.55;74.13;98355.97;1088959;47;951;-81
2023/10/28 03:49:20;;;;;;;;;;;;;;;11.49;74.38;98354.88;1088630;46;997;-82
2023/10/28 03:50:27;;;;;;;;;;;;;;;11.54;74.21;98357.81;1088690;47;1021;-82
2023/10/28 03:51:34;;;;;;;;;;;;;;;11.46;74.05;98360.63;1088500;47;1004;-83
2023/10/28 03:52:34;;;;;;;;;;;;;;;11.48;74.47;98357.75;1088498;47;905;-81
2023/10/28 03:53:35;;;;;;;;;;;;;;;11.47;74.22;98361.44;1088590;54;1016;-82
2023/10/28 03:54:39;;;;;;;;;;;;;;;11.51;74.07;98357.38;1088619;54;1036;-81
2023/10/28 03:55:40;;;;;;;;;;;;;;;11.52;74.13;98356.34;1088560;47;1400;-82
2023/10/28 03:56:47;;;;;;;;;;;;;;;11.49;73.65;98356.72;1088804;54;1214;-82
2023/10/28 03:57:48;;;;;;;;;;;;;;;11.47;73.93;98350.75;1088798;47;1486;-82
2023/10/28 04:00:14;;;;;;;;;;;;;;;11.52;74.09;98349.16;1088737;47;982;-82
2023/10/28 04:30:59;;;;;;;;;;;;;;;11.62;71.88;98356.84;1089050;54;462;-80
2023/10/28 04:32:08;;;;;;;;;;;;;;;11.51;72.09;98362.72;1088810;54;899;-80
2023/10/28 04:33:12;;;;;;;;;;;;;;;11.49;71.72;98357.56;1088785;54;880;-81
2023/10/28 04:34:12;;;;;;;;;;;;;;;11.53;72.21;98366.00;1088781;54;986;-78
2023/10/28 04:35:16;;;;;;;;;;;;;;;11.53;71.99;98358.00;1088786;47;1157;-79
2023/10/28 04:36:47;;;;;;;;;;;;;;;11.57;71.55;98355.78;1088925;54;1160;-82
2023/10/28 04:38:52;;;;;;;;;;;;;;;11.52;71.85;98351.00;1088456;54;959;-79
2023/10/28 04:39:53;;;;;;;;;;;;;;;11.54;71.97;98352.47;1088295;47;879;-78
2023/10/28 04:40:57;;;;;;;;;;;;;;;11.58;72.20;98358.25;1088286;47;955;-78
2023/10/28 04:41:58;;;;;;;;;;;;;;;11.51;72.21;98362.72;1088333;54;1090;-77
2023/10/28 04:43:04;;;;;;;;;;;;;;;11.46;72.83;98357.94;1088166;47;912;-77
2023/10/28 04:44:05;;;;;;;;;;;;;;;11.53;72.61;98360.66;1088331;46;888;-78
2023/10/28 04:45:10;;;;;;;;;;;;;;;11.54;72.82;98362.31;1087888;47;1848;-80
2023/10/28 04:46:13;;;;;;;;;;;;;;;11.51;73.12;98357.38;1087988;54;901;-77
2023/10/28 04:47:16;;;;;;;;;;;;;;;11.47;72.80;98361.44;1087752;54;1180;-79
2023/10/28 04:48:17;;;;;;;;;;;;;;;11.36;73.22;98362.78;1087764;47;1441;-79
2023/10/28 04:49:20;;;;;;;;;;;;;;;11.39;73.60;98360.56;1087990;47;857;-79
2023/10/28 04:50:21;;;;;;;;;;;;;;;11.42;73.42;98362.03;1087938;47;955;-79
2023/10/28 04:51:24;;;;;;;;;;;;;;;11.34;73.46;98354.94;1088101;54;983;-78
2023/10/28 04:52:25;;;;;;;;;;;;;;;11.39;73.41;98365.91;1088122;54;999;-78
2023/10/28 04:53:28;;;;;;;;;;;;;;;11.39;73.43;98359.72;1088017;47;1130;-81
2023/10/28 04:54:28;;;;;;;;;;;;;;;11.36;73.74;98363.59;1088177;54;1065;-79
2023/10/28 04:55:32;;;;;;;;;;;;;;;11.42;73.76;98355.84;1088410;47;980;-81
2023/10/28 04:56:32;;;;;;;;;;;;;;;11.47;73.73;98356.94;1088290;47;1337;-81
2023/10/28 04:57:35;;;;;;;;;;;;;;;11.41;73.59;98359.53;1088022;47;946;-81
2023/10/28 04:58:49;;;;;;;;;;;;;;;11.42;73.77;98361.22;1088234;54;951;-81
2023/10/28 04:59:52;;;;;;;;;;;;;;;11.45;73.40;98353.63;1088355;47;995;-79
2023/10/28 05:00:52;;;;;;;;;;;;;;;11.47;73.38;98356.09;1088385;47;979;-79
2023/10/28 05:01:59;;;;;;;;;;;;;;;11.47;73.43;98353.41;1088031;47;932;-78
2023/10/28 05:03:01;;;;;;;;;;;;;;;11.49;73.38;98351.38;1087912;54;980;-79
2023/10/28 05:04:04;;;;;;;;;;;;;;;11.51;73.62;98352.84;1087864;47;895;-81
2023/10/28 05:05:05;;;;;;;;;;;;;;;11.50;73.74;98359.22;1088303;54;1852;-79
2023/10/28 05:06:09;;;;;;;;;;;;;;;11.42;73.72;98358.53;1088065;54;1039;-79
2023/10/28 05:07:13;;;;;;;;;;;;;;;11.46;73.59;98351.75;1088430;54;1356;-80
2023/10/28 05:08:16;;;;;;;;;;;;;;;11.48;73.52;98355.06;1088435;47;960;-80
2023/10/28 05:09:28;;;;;;;;;;;;;;;11.48;73.52;98357.75;1088179;54;1166;-81
2023/10/28 05:10:33;;;;;;;;;;;;;;;11.48;73.48;98357.75;1088384;47;1598;-81
2023/10/28 05:11:33;;;;;;;;;;;;;;;11.47;73.32;98356.09;1088048;47;1182;-79
2023/10/28 05:12:43;;;;;;;;;;;;;;;11.51;73.25;98354.69;1088301;54;1134;-81
2023/10/28 05:13:44;;;;;;;;;;;;;;;11.53;73.20;98347.28;1088190;54;1095;-79
2023/10/28 05:14:48;;;;;;;;;;;;;;;11.58;73.51;98346.72;1088342;46;1185;-81
2023/10/28 05:15:49;;;;;;;;;;;;;;;11.53;73.53;98353.47;1088247;54;936;-78
2023/10/28 05:16:50;;;;;;;;;;;;;;;11.54;73.15;98346.28;1088015;54;1309;-78
2023/10/28 05:17:56;;;;;;;;;;;;;;;11.57;73.20;98342.41;1087911;47;989;-77
2023/10/28 05:18:57;;;;;;;;;;;;;;;11.59;73.35;98345.69;1088186;54;1031;-79
2023/10/28 05:20:16;;;;;;;;;;;;;;;11.59;72.95;98349.22;1088205;54;1154;-79
2023/10/28 05:21:19;;;;;;;;;;;;;;;11.55;73.47;98353.28;1088514;54;1178;-81
2023/10/28 05:22:44;;;;;;;;;;;;;;;11.52;73.39;98349.16;1088763;54;1141;-83
2023/10/28 05:23:52;;;;;;;;;;;;;;;11.59;73.14;98345.69;1088682;46;1146;-83
2023/10/28 05:24:56;;;;;;;;;;;;;;;11.58;73.17;98352.06;1088353;47;1841;-84
2023/10/28 05:25:59;;;;;;;;;;;;;;;11.58;72.92;98334.16;1088557;47;979;-83
2023/10/28 05:27:11;;;;;;;;;;;;;;;11.57;73.29;98340.53;1088582;47;1482;-83
2023/10/28 05:28:12;;;;;;;;;;;;;;;11.57;73.19;98340.53;1088109;54;1261;-78
2023/10/28 05:29:16;;;;;;;;;;;;;;;11.54;72.94;98340.91;1087875;47;935;-80
2023/10/28 05:30:16;;;;;;;;;;;;;;;11.48;73.30;98347.88;1087865;54;908;-77
2023/10/28 05:31:20;;;;;;;;;;;;;;;11.48;73.59;98347.03;1087585;47;935;-77
2023/10/28 05:32:20;;;;;;;;;;;;;;;11.52;73.08;98346.47;1087840;47;881;-78
2023/10/28 05:33:26;;;;;;;;;;;;;;;11.55;73.19;98350.59;1087811;47;906;-79
2023/10/28 05:34:27;;;;;;;;;;;;;;;11.54;73.24;98352.47;1088315;54;1003;-83
2023/10/28 05:35:33;;;;;;;;;;;;;;;11.54;73.38;98346.28;1088591;54;1042;-81
2023/10/28 05:36:34;;;;;;;;;;;;;;;11.50;73.73;98353.03;1088160;47;1227;-82
2023/10/28 05:37:34;;;;;;;;;;;;;;;11.54;73.49;98346.28;1087834;47;991;-78
2023/10/28 05:38:37;;;;;;;;;;;;;;;11.43;73.36;98352.16;1087769;47;971;-79
2023/10/28 05:39:40;;;;;;;;;;;;;;;11.43;73.31;98352.16;1087265;54;1109;-78
2023/10/28 05:40:43;;;;;;;;;;;;;;;11.46;73.30;98355.28;1087779;47;954;-79
2023/10/28 05:41:44;;;;;;;;;;;;;;;11.49;73.47;98354.06;1087805;47;958;-78
2023/10/28 05:42:48;;;;;;;;;;;;;;;11.51;73.62;98349.34;1087668;47;957;-78
2023/10/28 05:43:48;;;;;;;;;;;;;;;11.54;73.31;98356.97;1087745;47;1095;-79
2023/10/28 05:44:52;;;;;;;;;;;;;;;11.54;73.08;98351.63;1087715;47;996;-78
2023/10/28 05:45:53;;;;;;;;;;;;;;;11.57;73.38;98356.59;1087727;47;1897;-77
2023/10/28 05:46:59;;;;;;;;;;;;;;;11.54;73.03;98359.66;1087834;54;1377;-78
2023/10/28 05:47:59;;;;;;;;;;;;;;;11.58;73.40;98363.59;1087805;47;948;-78
2023/10/28 05:49:05;;;;;;;;;;;;;;;11.58;72.87;98362.75;1087717;47;887;-78
2023/10/28 05:50:07;;;;;;;;;;;;;;;11.58;73.18;98368.97;1087801;54;1187;-78
2023/10/28 05:51:11;;;;;;;;;;;;;;;11.62;72.84;98364.06;1087939;54;1335;-81
2023/10/28 05:52:12;;;;;;;;;;;;;;;11.62;73.05;98367.53;1087978;47;930;-81
2023/10/28 05:53:16;;;;;;;;;;;;;;;11.64;73.21;98362.00;1087938;47;899;-82
2023/10/28 05:54:17;;;;;;;;;;;;;;;11.64;72.90;98357.47;1088042;54;1152;-83
2023/10/28 05:55:20;;;;;;;;;;;;;;;11.66;73.03;98352.75;1087883;47;976;-80
2023/10/28 05:56:21;;;;;;;;;;;;;;;11.65;73.00;98359.13;1087874;47;1024;-81
2023/10/28 05:57:24;;;;;;;;;;;;;;;11.68;72.81;98358.75;1087986;47;1421;-82
2023/10/28 05:58:27;;;;;;;;;;;;;;;11.66;72.67;98366.16;1088313;54;869;-82
2023/10/28 05:59:31;;;;;;;;;;;;;;;11.55;73.20;98354.13;1088507;54;1091;-80
2023/10/28 06:00:31;;;;;;;;;;;;;;;11.60;72.95;98358.91;1088264;54;1091;-84
2023/10/28 06:01:35;;;;;;;;;;;;;;;11.51;73.24;98363.53;1088530;54;1202;-84
2023/10/28 06:02:38;;;;;;;;;;;;;;;11.53;73.20;98374.03;1088513;47;1105;-82
2023/10/28 06:03:49;;;;;;;;;;;;;;;11.51;73.03;98362.72;1088555;47;1039;-83
2023/10/28 06:04:52;;;;;;;;;;;;;;;11.52;73.18;98367.06;1088281;54;1176;-84
2023/10/28 06:05:56;;;;;;;;;;;;;;;11.46;73.29;98368.66;1088043;47;1874;-82
2023/10/28 06:06:56;;;;;;;;;;;;;;;11.47;73.20;98372.16;1088151;54;1364;-83
2023/10/28 06:08:00;;;;;;;;;;;;;;;11.46;73.33;98375.84;1088080;54;1030;-80
2023/10/28 06:09:00;;;;;;;;;;;;;;;11.39;73.33;98376.63;1087878;54;888;-79
2023/10/28 06:10:01;;;;;;;;;;;;;;;11.44;73.81;98372.53;1087861;47;959;-80
2023/10/28 06:11:04;;;;;;;;;;;;;;;11.43;73.59;98374.38;1087764;47;980;-80
2023/10/28 06:12:20;;;;;;;;;;;;;;;11.36;73.59;98371.63;1088281;47;1015;-83
2023/10/28 06:13:29;;;;;;;;;;;;;;;11.37;73.65;98375.97;1088578;54;1090;-82
2023/10/28 06:14:31;;;;;;;;;;;;;;;11.41;73.69;98375.59;1088149;54;922;-85
2023/10/28 06:15:34;;;;;;;;;;;;;;;11.45;73.64;98390.22;1088212;54;986;-83
2023/10/28 06:16:35;;;;;;;;;;;;;;;11.42;73.42;98386.09;1088166;47;1212;-82
2023/10/28 06:17:38;;;;;;;;;;;;;;;11.47;73.30;98393.56;1088183;54;1018;-82
2023/10/28 06:18:39;;;;;;;;;;;;;;;11.47;73.52;98390.88;1088099;47;944;-82
2023/10/28 06:19:43;;;;;;;;;;;;;;;11.50;72.70;98383.28;1088044;54;1015;-80
2023/10/28 06:20:47;;;;;;;;;;;;;;;11.52;72.77;98391.16;1087860;54;977;-79
2023/10/28 06:21:51;;;;;;;;;;;;;;;11.57;72.26;98394.06;1087956;54;976;-81
2023/10/28 06:22:52;;;;;;;;;;;;;;;11.52;72.49;98393.81;1087802;47;951;-79
2023/10/28 06:23:55;;;;;;;;;;;;;;;11.55;71.86;98396.09;1087792;47;927;-80
2023/10/28 06:24:56;;;;;;;;;;;;;;;11.49;71.51;98392.34;1087697;47;984;-79
2023/10/28 06:26:03;;;;;;;;;;;;;;;11.51;71.48;98390.31;1088124;54;1833;-83
2023/10/28 06:27:08;;;;;;;;;;;;;;;11.62;70.76;98404.19;1088016;54;1293;-81
2023/10/28 06:28:11;;;;;;;;;;;;;;;11.66;71.13;98402.81;1087974;47;999;-82
2023/10/28 06:29:12;;;;;;;;;;;;;;;11.63;70.83;98401.31;1088119;47;1141;-81
2023/10/28 06:30:16;;;;;;;;;;;;;;;11.67;70.51;98402.59;1087896;47;1096;-81
2023/10/28 06:31:16;;;;;;;;;;;;;;;11.71;70.51;98406.53;1087751;54;1189;-81
2023/10/28 06:32:19;;;;;;;;;;;;;;;11.74;70.41;98404.50;1087807;47;975;-80
2023/10/28 06:33:20;;;;;;;;;;;;;;;11.78;69.31;98401.25;1087820;47;947;-82
2023/10/28 06:34:27;;;;;;;;;;;;;;;11.82;70.09;98399.84;1088369;54;1079;-81
2023/10/28 06:35:27;;;;;;;;;;;;;;;11.85;69.11;98403.97;1087879;47;1052;-82
2023/10/28 06:36:35;;;;;;;;;;;;;;;11.83;68.68;98408.69;1087231;47;1311;-81
2023/10/28 06:37:39;;;;;;;;;;;;;;;11.81;69.02;98408.06;1087786;54;1390;-79
2023/10/28 06:38:42;;;;;;;;;;;;;;;11.83;68.98;98406.03;1087887;47;953;-81
2023/10/28 06:39:47;;;;;;;;;;;;;;;11.80;68.63;98403.75;1088275;54;1097;-85
2023/10/28 06:40:51;;;;;;;;;;;;;;;11.86;68.60;98408.31;1087717;47;1071;-81
2023/10/28 06:41:52;;;;;;;;;;;;;;;11.83;67.86;98406.03;1087571;54;1008;-81
2023/10/28 06:42:56;;;;;;;;;;;;;;;11.89;68.02;98412.47;1087704;54;1079;-82
2023/10/28 06:44:02;;;;;;;;;;;;;;;11.86;68.43;98409.13;1087362;54;1182;-81
2023/10/28 06:45:09;;;;;;;;;;;;;;;11.85;68.34;98410.16;1088455;54;1184;-81
2023/10/28 06:46:28;;;;;;;;;;;;;;;11.93;67.97;98419.91;1088112;47;1896;-81
2023/10/28 06:47:32;;;;;;;;;;;;;;;11.92;67.88;98418.25;1088008;54;1118;-82
2023/10/28 06:48:33;;;;;;;;;;;;;;;11.91;67.79;98424.63;1088009;47;1047;-80
2023/10/28 06:49:35;;;;;;;;;;;;;;;11.79;67.90;98416.28;1087894;54;1160;-81
2023/10/28 06:50:50;;;;;;;;;;;;;;;11.88;68.17;98422.34;1088197;54;1615;-80
2023/10/28 06:51:57;;;;;;;;;;;;;;;11.89;67.73;98424.00;1088426;47;1109;-82
2023/10/28 06:53:00;;;;;;;;;;;;;;;11.91;67.55;98421.94;1088217;54;994;-82
2023/10/28 06:54:02;;;;;;;;;;;;;;;11.87;67.52;98431.41;1087882;54;1094;-80
2023/10/28 06:55:03;;;;;;;;;;;;;;;11.93;67.81;98425.25;1088104;54;1114;-80
2023/10/28 06:56:06;;;;;;;;;;;;;;;11.95;67.35;98422.41;1087938;54;1146;-82
2023/10/28 06:57:07;;;;;;;;;;;;;;;11.96;67.55;98434.75;1088113;54;1355;-79
2023/10/28 06:58:10;;;;;;;;;;;;;;;11.95;67.37;98427.78;1088091;47;1103;-80
2023/10/28 06:59:12;;;;;;;;;;;;;;;11.93;67.15;98427.13;1088049;47;1074;-80
2023/10/28 07:00:16;;;;;;;;;;;;;;;11.92;67.46;98431.63;1088193;54;967;-80
2023/10/28 07:01:18;;;;;;;;;;;;;;;11.91;67.18;98438.00;1088137;47;867;-80
2023/10/28 07:02:22;;;;;;;;;;;;;;;11.94;67.21;98439.50;1088379;54;1051;-80
2023/10/28 07:03:22;;;;;;;;;;;;;;;11.85;67.64;98444.16;1088532;46;1014;-79
2023/10/28 07:04:23;;;;;;;;;;;;;;;11.80;67.56;98441.22;1088504;54;1065;-79
2023/10/28 07:10:38;;;;;;;;;;;;;;;12.01;67.61;98441.22;1088800;46;1430;-79
2023/10/28 07:11:39;;;;;;;;;;;;;;;11.88;67.78;98442.94;1088391;54;990;-80
2023/10/28 07:12:42;;;;;;;;;;;;;;;11.88;68.27;98459.00;1088616;54;995;-79
2023/10/28 07:13:45;;;;;;;;;;;;;;;11.85;68.41;98454.84;1088989;47;994;-83
2023/10/28 07:14:49;;;;;;;;;;;;;;;11.92;68.24;98454.94;1088905;46;1482;-82
2023/10/28 07:15:59;;;;;;;;;;;;;;;11.97;68.22;98458.72;1089127;54;1205;-84
2023/10/28 07:17:03;;;;;;;;;;;;;;;11.89;68.35;98464.19;1089116;54;1222;-83
2023/10/28 07:18:08;;;;;;;;;;;;;;;11.91;68.09;98467.47;1089036;54;968;-80
2023/10/28 07:19:17;;;;;;;;;;;;;;;11.94;67.93;98471.63;1088834;46;1136;-80
2023/10/28 07:20:19;;;;;;;;;;;;;;;11.94;67.95;98467.09;1088918;54;1185;-83
2023/10/28 07:21:22;;;;;;;;;;;;;;;12.00;67.95;98474.38;1088529;46;1087;-82
2023/10/28 07:22:31;;;;;;;;;;;;;;;12.07;67.96;98460.25;1088110;47;1056;-81
2023/10/28 07:23:40;;;;;;;;;;;;;;;12.12;67.51;98463.16;1088609;47;1035;-81
2023/10/28 07:24:43;;;;;;;;;;;;;;;12.16;67.52;98464.44;1088359;54;1182;-82
2023/10/28 07:25:49;;;;;;;;;;;;;;;12.16;67.70;98457.22;1088331;47;1863;-81
2023/10/28 07:26:51;;;;;;;;;;;;;;;12.19;67.05;98461.34;1088055;47;1341;-81
2023/10/28 07:27:57;;;;;;;;;;;;;;;12.19;67.39;98458.66;1087709;47;1015;-79
2023/10/28 07:28:58;;;;;;;;;;;;;;;12.19;67.10;98464.03;1087451;47;1107;-81
2023/10/28 07:30:02;;;;;;;;;;;;;;;12.16;67.19;98459.06;1087537;54;1182;-80
2023/10/28 07:31:03;;;;;;;;;;;;;;;12.16;67.43;98462.56;1087326;54;1057;-81
2023/10/28 07:32:06;;;;;;;;;;;;;;;12.18;67.27;98462.41;1087161;54;1075;-79
2023/10/28 07:33:11;;;;;;;;;;;;;;;12.16;67.28;98457.22;1087614;54;1177;-79
2023/10/28 07:34:26;;;;;;;;;;;;;;;12.10;67.27;98468.72;1086964;54;1138;-80